Pagrindinis puslapis
METAR-TAF:

METAR-TAF

Oro uostai :

Raton Municipal Airport (Crews Field)

Raton, Naujoji Meksika, Jungtinės Amerikos Valstijos

platuma: 36-44-31N, ilguma: 104-39-28W, Aukštis: 1935 m

Dabartinis oras

Ataskaita buvo paskelbta 54 minutes, ne 10:53 UTC
Vėjas 5 kt iš Šiaurės
Temperatūra 8°C
Drėgmė 87%
Slėgis 1029 hPa
Matomumas: 16.1 km
Giedras dangus

METAR: KRTN 291053Z AUTO 01005KT 10SM CLR 08/06 A3039 RMK AO2 SLP218 T00830056

Laikas: 05:47 (11:47 UTC)


TAF: trūkstamas

Orai ataskaitas ir orų prognozės (METAR, TAF).

turimą stotys yra geltonos ir raudonos taškus žemėlapyje.

Perkelti pele per norėdami pamatyti stoties vardą.

Tada spustelėkite, norėdami matyti oro stebėjimo ir prognozės.

Norėdami pakeisti žemėlapį: spustelėkite ant žalios mygtukų su juodo kryžiaus žemyn,; žalią mygtuką su brūkšneliu, jei norite nutolinti; arba žalių rodyklių gretimoms žemėlapius.


METAR-TAF: